sensor_id;sensor_type;location;lat;lon;timestamp;P1;durP1;ratioP1;P2;durP2;ratioP2
22248;SDS011;67538;52.180;5.646;2024-01-27T00:01:15;28.07;;;5.20;;
22248;SDS011;67538;52.180;5.646;2024-01-27T00:03:42;25.50;;;4.97;;
22248;SDS011;67538;52.180;5.646;2024-01-27T00:06:09;28.60;;;6.00;;
22248;SDS011;67538;52.180;5.646;2024-01-27T00:08:37;27.70;;;5.23;;
22248;SDS011;67538;52.180;5.646;2024-01-27T00:11:04;31.70;;;5.17;;
22248;SDS011;67538;52.180;5.646;2024-01-27T00:13:31;23.03;;;5.03;;
22248;SDS011;67538;52.180;5.646;2024-01-27T00:15:59;28.37;;;5.57;;
22248;SDS011;67538;52.180;5.646;2024-01-27T00:18:26;25.40;;;5.70;;
22248;SDS011;67538;52.180;5.646;2024-01-27T00:20:53;32.20;;;5.30;;
22248;SDS011;67538;52.180;5.646;2024-01-27T00:23:20;26.67;;;5.67;;
22248;SDS011;67538;52.180;5.646;2024-01-27T00:25:48;18.07;;;5.13;;
22248;SDS011;67538;52.180;5.646;2024-01-27T00:28:15;26.30;;;5.17;;
22248;SDS011;67538;52.180;5.646;2024-01-27T00:30:43;23.13;;;5.80;;
22248;SDS011;67538;52.180;5.646;2024-01-27T00:33:10;21.73;;;5.20;;
22248;SDS011;67538;52.180;5.646;2024-01-27T00:35:37;23.90;;;5.63;;
22248;SDS011;67538;52.180;5.646;2024-01-27T00:38:04;20.87;;;5.27;;
22248;SDS011;67538;52.180;5.646;2024-01-27T00:40:31;35.57;;;6.10;;
22248;SDS011;67538;52.180;5.646;2024-01-27T00:42:59;26.10;;;5.00;;
22248;SDS011;67538;52.180;5.646;2024-01-27T00:45:28;28.37;;;5.03;;
22248;SDS011;67538;52.180;5.646;2024-01-27T00:47:55;27.83;;;4.70;;
22248;SDS011;67538;52.180;5.646;2024-01-27T00:50:22;27.83;;;4.93;;
22248;SDS011;67538;52.180;5.646;2024-01-27T00:52:49;26.23;;;5.37;;
22248;SDS011;67538;52.180;5.646;2024-01-27T00:55:17;19.47;;;5.13;;
22248;SDS011;67538;52.180;5.646;2024-01-27T00:57:44;23.70;;;5.10;;
22248;SDS011;67538;52.180;5.646;2024-01-27T01:00:13;25.70;;;4.57;;
22248;SDS011;67538;52.180;5.646;2024-01-27T01:02:41;14.20;;;4.77;;
22248;SDS011;67538;52.180;5.646;2024-01-27T01:05:08;27.57;;;5.10;;
22248;SDS011;67538;52.180;5.646;2024-01-27T01:07:35;25.90;;;5.33;;
22248;SDS011;67538;52.180;5.646;2024-01-27T01:10:02;23.53;;;5.03;;
22248;SDS011;67538;52.180;5.646;2024-01-27T01:12:30;22.47;;;5.53;;
22248;SDS011;67538;52.180;5.646;2024-01-27T01:14:57;32.17;;;5.33;;
22248;SDS011;67538;52.180;5.646;2024-01-27T01:17:25;38.93;;;6.23;;
22248;SDS011;67538;52.180;5.646;2024-01-27T01:19:52;26.70;;;5.33;;
22248;SDS011;67538;52.180;5.646;2024-01-27T01:22:19;18.80;;;4.83;;
22248;SDS011;67538;52.180;5.646;2024-01-27T01:24:46;23.90;;;4.97;;
22248;SDS011;67538;52.180;5.646;2024-01-27T01:27:13;33.57;;;5.53;;
22248;SDS011;67538;52.180;5.646;2024-01-27T01:29:44;27.17;;;5.27;;
22248;SDS011;67538;52.180;5.646;2024-01-27T01:32:11;27.03;;;5.23;;
22248;SDS011;67538;52.180;5.646;2024-01-27T01:34:39;26.67;;;4.83;;
22248;SDS011;67538;52.180;5.646;2024-01-27T01:37:06;35.70;;;4.97;;
22248;SDS011;67538;52.180;5.646;2024-01-27T01:39:33;32.73;;;5.57;;
22248;SDS011;67538;52.180;5.646;2024-01-27T01:42:00;20.50;;;5.00;;
22248;SDS011;67538;52.180;5.646;2024-01-27T01:44:30;24.57;;;5.20;;
22248;SDS011;67538;52.180;5.646;2024-01-27T01:46:58;22.00;;;4.90;;
22248;SDS011;67538;52.180;5.646;2024-01-27T01:49:25;27.10;;;5.00;;
22248;SDS011;67538;52.180;5.646;2024-01-27T01:51:54;27.57;;;5.07;;
22248;SDS011;67538;52.180;5.646;2024-01-27T01:54:21;22.50;;;4.90;;
22248;SDS011;67538;52.180;5.646;2024-01-27T01:56:52;17.77;;;4.90;;
22248;SDS011;67538;52.180;5.646;2024-01-27T01:59:20;25.53;;;4.10;;
22248;SDS011;67538;52.180;5.646;2024-01-27T02:01:47;32.53;;;5.17;;
22248;SDS011;67538;52.180;5.646;2024-01-27T02:04:14;28.40;;;4.50;;
22248;SDS011;67538;52.180;5.646;2024-01-27T02:06:42;23.30;;;4.83;;
22248;SDS011;67538;52.180;5.646;2024-01-27T02:09:10;27.03;;;5.20;;
22248;SDS011;67538;52.180;5.646;2024-01-27T02:11:38;17.40;;;4.07;;
22248;SDS011;67538;52.180;5.646;2024-01-27T02:14:05;23.27;;;3.93;;
22248;SDS011;67538;52.180;5.646;2024-01-27T02:16:33;18.23;;;4.20;;
22248;SDS011;67538;52.180;5.646;2024-01-27T02:19:00;28.07;;;4.67;;
22248;SDS011;67538;52.180;5.646;2024-01-27T02:21:27;23.87;;;4.80;;
22248;SDS011;67538;52.180;5.646;2024-01-27T02:23:54;32.17;;;5.00;;
22248;SDS011;67538;52.180;5.646;2024-01-27T02:26:22;21.10;;;4.90;;
22248;SDS011;67538;52.180;5.646;2024-01-27T02:28:49;33.10;;;5.47;;
22248;SDS011;67538;52.180;5.646;2024-01-27T02:31:16;20.50;;;4.13;;
22248;SDS011;67538;52.180;5.646;2024-01-27T02:33:44;22.77;;;4.93;;
22248;SDS011;67538;52.180;5.646;2024-01-27T02:36:11;18.53;;;4.37;;
22248;SDS011;67538;52.180;5.646;2024-01-27T02:38:38;15.40;;;4.17;;
22248;SDS011;67538;52.180;5.646;2024-01-27T02:41:05;23.93;;;4.40;;
22248;SDS011;67538;52.180;5.646;2024-01-27T02:43:34;18.43;;;4.20;;
22248;SDS011;67538;52.180;5.646;2024-01-27T02:46:01;24.00;;;4.97;;
22248;SDS011;67538;52.180;5.646;2024-01-27T02:48:28;27.37;;;4.87;;
22248;SDS011;67538;52.180;5.646;2024-01-27T02:50:55;30.73;;;4.97;;
22248;SDS011;67538;52.180;5.646;2024-01-27T02:53:22;22.67;;;4.90;;
22248;SDS011;67538;52.180;5.646;2024-01-27T02:55:49;24.17;;;5.03;;
22248;SDS011;67538;52.180;5.646;2024-01-27T02:58:16;21.70;;;5.00;;
22248;SDS011;67538;52.180;5.646;2024-01-27T03:00:45;22.87;;;5.17;;
22248;SDS011;67538;52.180;5.646;2024-01-27T03:03:12;24.77;;;5.40;;
22248;SDS011;67538;52.180;5.646;2024-01-27T03:05:40;29.07;;;4.43;;
22248;SDS011;67538;52.180;5.646;2024-01-27T03:08:07;26.23;;;5.13;;
22248;SDS011;67538;52.180;5.646;2024-01-27T03:10:34;28.53;;;4.80;;
22248;SDS011;67538;52.180;5.646;2024-01-27T03:13:01;27.27;;;4.27;;
22248;SDS011;67538;52.180;5.646;2024-01-27T03:15:28;24.10;;;4.10;;
22248;SDS011;67538;52.180;5.646;2024-01-27T03:17:57;19.00;;;4.50;;
22248;SDS011;67538;52.180;5.646;2024-01-27T03:20:24;33.33;;;5.10;;
22248;SDS011;67538;52.180;5.646;2024-01-27T03:22:51;20.30;;;4.23;;
22248;SDS011;67538;52.180;5.646;2024-01-27T03:25:18;21.07;;;4.50;;
22248;SDS011;67538;52.180;5.646;2024-01-27T03:27:45;22.90;;;4.40;;
22248;SDS011;67538;52.180;5.646;2024-01-27T03:30:12;25.17;;;4.73;;
22248;SDS011;67538;52.180;5.646;2024-01-27T03:32:38;19.47;;;4.43;;
22248;SDS011;67538;52.180;5.646;2024-01-27T03:35:08;29.13;;;4.70;;
22248;SDS011;67538;52.180;5.646;2024-01-27T03:37:35;20.50;;;4.40;;
22248;SDS011;67538;52.180;5.646;2024-01-27T03:40:03;16.67;;;4.07;;
22248;SDS011;67538;52.180;5.646;2024-01-27T03:42:32;19.97;;;4.63;;
22248;SDS011;67538;52.180;5.646;2024-01-27T03:45:00;20.90;;;5.07;;
22248;SDS011;67538;52.180;5.646;2024-01-27T03:47:27;19.03;;;4.60;;
22248;SDS011;67538;52.180;5.646;2024-01-27T03:49:54;30.23;;;5.17;;
22248;SDS011;67538;52.180;5.646;2024-01-27T03:52:23;29.87;;;5.27;;
22248;SDS011;67538;52.180;5.646;2024-01-27T03:54:50;29.37;;;5.47;;
22248;SDS011;67538;52.180;5.646;2024-01-27T03:57:17;18.63;;;4.37;;
22248;SDS011;67538;52.180;5.646;2024-01-27T03:59:44;31.20;;;6.20;;
22248;SDS011;67538;52.180;5.646;2024-01-27T04:02:11;18.70;;;4.63;;
22248;SDS011;67538;52.180;5.646;2024-01-27T04:04:38;24.97;;;5.50;;
22248;SDS011;67538;52.180;5.646;2024-01-27T04:07:05;34.73;;;4.80;;
22248;SDS011;67538;52.180;5.646;2024-01-27T04:09:33;20.20;;;5.57;;
22248;SDS011;67538;52.180;5.646;2024-01-27T04:12:01;30.93;;;5.43;;
22248;SDS011;67538;52.180;5.646;2024-01-27T04:14:28;21.07;;;5.70;;
22248;SDS011;67538;52.180;5.646;2024-01-27T04:16:55;25.80;;;5.33;;
22248;SDS011;67538;52.180;5.646;2024-01-27T04:19:22;28.80;;;6.10;;
22248;SDS011;67538;52.180;5.646;2024-01-27T04:21:49;18.90;;;5.27;;
22248;SDS011;67538;52.180;5.646;2024-01-27T04:24:16;21.73;;;5.37;;
22248;SDS011;67538;52.180;5.646;2024-01-27T04:26:44;20.40;;;5.63;;
22248;SDS011;67538;52.180;5.646;2024-01-27T04:29:11;20.93;;;6.73;;
22248;SDS011;67538;52.180;5.646;2024-01-27T04:31:40;22.57;;;6.23;;
22248;SDS011;67538;52.180;5.646;2024-01-27T04:34:08;25.60;;;6.63;;
22248;SDS011;67538;52.180;5.646;2024-01-27T04:36:35;28.97;;;7.23;;
22248;SDS011;67538;52.180;5.646;2024-01-27T04:39:03;26.70;;;7.83;;
22248;SDS011;67538;52.180;5.646;2024-01-27T04:41:30;27.50;;;8.20;;
22248;SDS011;67538;52.180;5.646;2024-01-27T04:43:59;23.53;;;7.53;;
22248;SDS011;67538;52.180;5.646;2024-01-27T04:46:26;23.90;;;7.83;;
22248;SDS011;67538;52.180;5.646;2024-01-27T04:48:53;25.80;;;7.73;;
22248;SDS011;67538;52.180;5.646;2024-01-27T04:51:20;35.97;;;9.20;;
22248;SDS011;67538;52.180;5.646;2024-01-27T04:53:47;29.53;;;8.90;;
22248;SDS011;67538;52.180;5.646;2024-01-27T04:56:15;30.87;;;9.83;;
22248;SDS011;67538;52.180;5.646;2024-01-27T04:58:42;28.07;;;9.37;;
22248;SDS011;67538;52.180;5.646;2024-01-27T05:01:10;33.97;;;9.20;;
22248;SDS011;67538;52.180;5.646;2024-01-27T05:03:37;32.97;;;8.97;;
22248;SDS011;67538;52.180;5.646;2024-01-27T05:06:07;29.63;;;9.03;;
22248;SDS011;67538;52.180;5.646;2024-01-27T05:08:34;23.87;;;10.17;;
22248;SDS011;67538;52.180;5.646;2024-01-27T05:11:02;33.33;;;10.13;;
22248;SDS011;67538;52.180;5.646;2024-01-27T05:13:29;31.43;;;9.80;;
22248;SDS011;67538;52.180;5.646;2024-01-27T05:15:56;35.10;;;11.00;;
22248;SDS011;67538;52.180;5.646;2024-01-27T05:18:25;31.33;;;9.97;;
22248;SDS011;67538;52.180;5.646;2024-01-27T05:20:52;40.20;;;10.93;;
22248;SDS011;67538;52.180;5.646;2024-01-27T05:23:19;28.00;;;9.90;;
22248;SDS011;67538;52.180;5.646;2024-01-27T05:25:46;32.13;;;9.90;;
22248;SDS011;67538;52.180;5.646;2024-01-27T05:28:13;29.13;;;11.20;;
22248;SDS011;67538;52.180;5.646;2024-01-27T05:30:40;29.87;;;11.07;;
22248;SDS011;67538;52.180;5.646;2024-01-27T05:33:08;33.70;;;11.50;;
22248;SDS011;67538;52.180;5.646;2024-01-27T05:35:36;31.70;;;10.70;;
22248;SDS011;67538;52.180;5.646;2024-01-27T05:38:03;32.53;;;11.47;;
22248;SDS011;67538;52.180;5.646;2024-01-27T05:40:30;23.47;;;10.43;;
22248;SDS011;67538;52.180;5.646;2024-01-27T05:42:57;33.77;;;11.60;;
22248;SDS011;67538;52.180;5.646;2024-01-27T05:45:24;24.73;;;11.10;;
22248;SDS011;67538;52.180;5.646;2024-01-27T05:47:52;31.20;;;12.00;;
22248;SDS011;67538;52.180;5.646;2024-01-27T05:50:19;28.77;;;10.80;;
22248;SDS011;67538;52.180;5.646;2024-01-27T05:52:47;33.70;;;12.07;;
22248;SDS011;67538;52.180;5.646;2024-01-27T05:55:15;32.93;;;12.47;;
22248;SDS011;67538;52.180;5.646;2024-01-27T05:57:42;35.37;;;11.97;;
22248;SDS011;67538;52.180;5.646;2024-01-27T06:00:09;25.90;;;12.53;;
22248;SDS011;67538;52.180;5.646;2024-01-27T06:02:38;32.40;;;12.80;;
22248;SDS011;67538;52.180;5.646;2024-01-27T06:05:05;28.07;;;12.40;;
22248;SDS011;67538;52.180;5.646;2024-01-27T06:07:34;28.40;;;12.00;;
22248;SDS011;67538;52.180;5.646;2024-01-27T06:10:06;33.73;;;12.77;;
22248;SDS011;67538;52.180;5.646;2024-01-27T06:12:34;33.20;;;13.27;;
22248;SDS011;67538;52.180;5.646;2024-01-27T06:15:02;41.67;;;12.60;;
22248;SDS011;67538;52.180;5.646;2024-01-27T06:17:30;27.33;;;11.63;;
22248;SDS011;67538;52.180;5.646;2024-01-27T06:19:57;33.03;;;12.97;;
22248;SDS011;67538;52.180;5.646;2024-01-27T06:22:24;49.30;;;13.47;;
22248;SDS011;67538;52.180;5.646;2024-01-27T06:24:51;35.00;;;13.80;;
22248;SDS011;67538;52.180;5.646;2024-01-27T06:27:19;33.47;;;13.40;;
22248;SDS011;67538;52.180;5.646;2024-01-27T06:29:46;34.63;;;13.33;;
22248;SDS011;67538;52.180;5.646;2024-01-27T06:32:13;37.40;;;13.83;;
22248;SDS011;67538;52.180;5.646;2024-01-27T06:34:40;36.13;;;13.47;;
22248;SDS011;67538;52.180;5.646;2024-01-27T06:37:08;39.03;;;13.90;;
22248;SDS011;67538;52.180;5.646;2024-01-27T06:39:35;43.80;;;14.10;;
22248;SDS011;67538;52.180;5.646;2024-01-27T06:42:02;37.10;;;14.63;;
22248;SDS011;67538;52.180;5.646;2024-01-27T06:44:30;38.00;;;14.53;;
22248;SDS011;67538;52.180;5.646;2024-01-27T06:46:58;34.37;;;13.63;;
22248;SDS011;67538;52.180;5.646;2024-01-27T06:49:25;34.03;;;14.40;;
22248;SDS011;67538;52.180;5.646;2024-01-27T06:51:52;42.37;;;15.53;;
22248;SDS011;67538;52.180;5.646;2024-01-27T06:54:19;28.13;;;14.53;;
22248;SDS011;67538;52.180;5.646;2024-01-27T06:56:45;45.97;;;15.23;;
22248;SDS011;67538;52.180;5.646;2024-01-27T06:59:12;34.23;;;15.67;;
22248;SDS011;67538;52.180;5.646;2024-01-27T07:01:40;40.63;;;15.73;;
22248;SDS011;67538;52.180;5.646;2024-01-27T07:04:13;31.07;;;14.63;;
22248;SDS011;67538;52.180;5.646;2024-01-27T07:06:40;42.50;;;14.87;;
22248;SDS011;67538;52.180;5.646;2024-01-27T07:09:07;32.57;;;14.17;;
22248;SDS011;67538;52.180;5.646;2024-01-27T07:11:34;32.97;;;15.67;;
22248;SDS011;67538;52.180;5.646;2024-01-27T07:14:02;35.03;;;15.43;;
22248;SDS011;67538;52.180;5.646;2024-01-27T07:16:29;41.27;;;15.57;;
22248;SDS011;67538;52.180;5.646;2024-01-27T07:18:58;32.30;;;16.00;;
22248;SDS011;67538;52.180;5.646;2024-01-27T07:21:25;36.63;;;16.87;;
22248;SDS011;67538;52.180;5.646;2024-01-27T07:23:54;48.23;;;16.37;;
22248;SDS011;67538;52.180;5.646;2024-01-27T07:26:21;39.87;;;17.43;;
22248;SDS011;67538;52.180;5.646;2024-01-27T07:28:48;44.10;;;17.53;;
22248;SDS011;67538;52.180;5.646;2024-01-27T07:31:15;44.03;;;18.43;;
22248;SDS011;67538;52.180;5.646;2024-01-27T07:33:42;50.03;;;18.20;;
22248;SDS011;67538;52.180;5.646;2024-01-27T07:36:11;46.67;;;17.03;;
22248;SDS011;67538;52.180;5.646;2024-01-27T07:38:38;50.83;;;20.17;;
22248;SDS011;67538;52.180;5.646;2024-01-27T07:41:05;53.83;;;20.10;;
22248;SDS011;67538;52.180;5.646;2024-01-27T07:43:32;49.93;;;20.07;;
22248;SDS011;67538;52.180;5.646;2024-01-27T07:45:59;44.00;;;18.43;;
22248;SDS011;67538;52.180;5.646;2024-01-27T07:48:26;41.97;;;19.33;;
22248;SDS011;67538;52.180;5.646;2024-01-27T07:50:53;50.17;;;20.53;;
22248;SDS011;67538;52.180;5.646;2024-01-27T07:53:23;49.80;;;21.27;;
22248;SDS011;67538;52.180;5.646;2024-01-27T07:55:50;49.43;;;20.40;;
22248;SDS011;67538;52.180;5.646;2024-01-27T07:58:19;51.50;;;20.70;;
22248;SDS011;67538;52.180;5.646;2024-01-27T08:00:46;43.93;;;18.53;;
22248;SDS011;67538;52.180;5.646;2024-01-27T08:03:13;40.50;;;18.07;;
22248;SDS011;67538;52.180;5.646;2024-01-27T08:05:40;43.80;;;18.00;;
22248;SDS011;67538;52.180;5.646;2024-01-27T08:08:07;52.50;;;19.50;;
22248;SDS011;67538;52.180;5.646;2024-01-27T08:10:36;49.37;;;19.47;;
22248;SDS011;67538;52.180;5.646;2024-01-27T08:13:03;43.73;;;17.37;;
22248;SDS011;67538;52.180;5.646;2024-01-27T08:15:30;52.80;;;17.63;;
22248;SDS011;67538;52.180;5.646;2024-01-27T08:17:57;46.87;;;18.67;;
22248;SDS011;67538;52.180;5.646;2024-01-27T08:20:24;50.20;;;17.93;;
22248;SDS011;67538;52.180;5.646;2024-01-27T08:22:51;42.47;;;16.13;;
22248;SDS011;67538;52.180;5.646;2024-01-27T08:25:18;36.93;;;17.17;;
22248;SDS011;67538;52.180;5.646;2024-01-27T08:27:47;39.97;;;16.93;;
22248;SDS011;67538;52.180;5.646;2024-01-27T08:30:14;44.10;;;16.70;;
22248;SDS011;67538;52.180;5.646;2024-01-27T08:32:41;39.23;;;16.10;;
22248;SDS011;67538;52.180;5.646;2024-01-27T08:35:08;44.33;;;15.60;;
22248;SDS011;67538;52.180;5.646;2024-01-27T08:37:35;50.67;;;16.93;;
22248;SDS011;67538;52.180;5.646;2024-01-27T08:40:04;44.93;;;15.97;;
22248;SDS011;67538;52.180;5.646;2024-01-27T08:42:32;40.70;;;16.23;;
22248;SDS011;67538;52.180;5.646;2024-01-27T08:45:01;47.87;;;17.30;;
22248;SDS011;67538;52.180;5.646;2024-01-27T08:47:29;47.53;;;17.37;;
22248;SDS011;67538;52.180;5.646;2024-01-27T08:49:56;41.37;;;16.23;;
22248;SDS011;67538;52.180;5.646;2024-01-27T08:52:23;37.57;;;16.53;;
22248;SDS011;67538;52.180;5.646;2024-01-27T08:54:50;36.87;;;15.70;;
22248;SDS011;67538;52.180;5.646;2024-01-27T08:57:17;40.50;;;14.83;;
22248;SDS011;67538;52.180;5.646;2024-01-27T08:59:44;42.63;;;16.30;;
22248;SDS011;67538;52.180;5.646;2024-01-27T09:02:13;43.97;;;15.77;;
22248;SDS011;67538;52.180;5.646;2024-01-27T09:04:40;47.70;;;15.60;;
22248;SDS011;67538;52.180;5.646;2024-01-27T09:07:07;42.13;;;15.40;;
22248;SDS011;67538;52.180;5.646;2024-01-27T09:09:34;37.13;;;14.87;;
22248;SDS011;67538;52.180;5.646;2024-01-27T09:12:03;40.67;;;14.77;;
22248;SDS011;67538;52.180;5.646;2024-01-27T09:14:30;36.57;;;13.57;;
22248;SDS011;67538;52.180;5.646;2024-01-27T09:16:58;36.43;;;13.83;;
22248;SDS011;67538;52.180;5.646;2024-01-27T09:19:27;37.60;;;14.13;;
22248;SDS011;67538;52.180;5.646;2024-01-27T09:21:54;39.17;;;14.47;;
22248;SDS011;67538;52.180;5.646;2024-01-27T09:24:21;46.33;;;14.70;;
22248;SDS011;67538;52.180;5.646;2024-01-27T09:26:48;33.87;;;13.77;;
22248;SDS011;67538;52.180;5.646;2024-01-27T09:29:16;42.73;;;14.30;;
22248;SDS011;67538;52.180;5.646;2024-01-27T09:31:44;42.97;;;16.20;;
22248;SDS011;67538;52.180;5.646;2024-01-27T09:34:11;33.27;;;15.53;;
22248;SDS011;67538;52.180;5.646;2024-01-27T09:36:40;35.53;;;15.50;;
22248;SDS011;67538;52.180;5.646;2024-01-27T09:39:07;40.47;;;16.90;;
22248;SDS011;67538;52.180;5.646;2024-01-27T09:41:34;44.63;;;15.77;;
22248;SDS011;67538;52.180;5.646;2024-01-27T09:44:01;35.60;;;13.93;;
22248;SDS011;67538;52.180;5.646;2024-01-27T09:46:30;36.90;;;12.50;;
22248;SDS011;67538;52.180;5.646;2024-01-27T09:48:57;30.73;;;11.73;;
22248;SDS011;67538;52.180;5.646;2024-01-27T09:51:25;24.90;;;10.63;;
22248;SDS011;67538;52.180;5.646;2024-01-27T09:53:54;36.17;;;10.57;;
22248;SDS011;67538;52.180;5.646;2024-01-27T09:56:22;33.43;;;11.03;;
22248;SDS011;67538;52.180;5.646;2024-01-27T09:58:49;30.70;;;10.20;;
22248;SDS011;67538;52.180;5.646;2024-01-27T10:01:20;41.23;;;10.87;;
22248;SDS011;67538;52.180;5.646;2024-01-27T10:03:50;25.07;;;9.93;;
22248;SDS011;67538;52.180;5.646;2024-01-27T10:06:17;27.40;;;10.37;;
22248;SDS011;67538;52.180;5.646;2024-01-27T10:08:47;29.50;;;9.97;;
22248;SDS011;67538;52.180;5.646;2024-01-27T10:11:23;27.67;;;10.40;;
22248;SDS011;67538;52.180;5.646;2024-01-27T10:13:54;26.60;;;10.40;;
22248;SDS011;67538;52.180;5.646;2024-01-27T10:16:22;30.40;;;9.67;;
22248;SDS011;67538;52.180;5.646;2024-01-27T10:18:58;22.63;;;9.27;;
22248;SDS011;67538;52.180;5.646;2024-01-27T10:21:26;21.43;;;8.93;;
22248;SDS011;67538;52.180;5.646;2024-01-27T10:23:53;26.60;;;8.60;;
22248;SDS011;67538;52.180;5.646;2024-01-27T10:26:21;22.90;;;9.03;;
22248;SDS011;67538;52.180;5.646;2024-01-27T10:28:55;27.23;;;8.67;;
22248;SDS011;67538;52.180;5.646;2024-01-27T10:31:25;23.60;;;8.63;;
22248;SDS011;67538;52.180;5.646;2024-01-27T10:33:53;28.60;;;8.70;;
22248;SDS011;67538;52.180;5.646;2024-01-27T10:36:21;23.50;;;8.57;;
22248;SDS011;67538;52.180;5.646;2024-01-27T10:38:48;35.47;;;9.13;;
22248;SDS011;67538;52.180;5.646;2024-01-27T10:41:17;34.50;;;8.87;;
22248;SDS011;67538;52.180;5.646;2024-01-27T10:43:51;30.77;;;8.80;;
22248;SDS011;67538;52.180;5.646;2024-01-27T10:46:19;26.53;;;8.87;;
22248;SDS011;67538;52.180;5.646;2024-01-27T10:48:49;23.90;;;9.27;;
22248;SDS011;67538;52.180;5.646;2024-01-27T10:51:18;27.10;;;8.67;;
22248;SDS011;67538;52.180;5.646;2024-01-27T10:53:54;29.97;;;9.53;;
22248;SDS011;67538;52.180;5.646;2024-01-27T10:56:25;28.80;;;9.10;;
22248;SDS011;67538;52.180;5.646;2024-01-27T10:58:53;28.20;;;7.93;;
22248;SDS011;67538;52.180;5.646;2024-01-27T11:01:22;22.23;;;7.93;;
22248;SDS011;67538;52.180;5.646;2024-01-27T11:03:51;25.90;;;7.53;;
22248;SDS011;67538;52.180;5.646;2024-01-27T11:06:19;22.40;;;7.53;;
22248;SDS011;67538;52.180;5.646;2024-01-27T11:08:49;25.70;;;8.20;;
22248;SDS011;67538;52.180;5.646;2024-01-27T11:11:16;28.83;;;6.83;;
22248;SDS011;67538;52.180;5.646;2024-01-27T11:13:45;22.07;;;7.50;;
22248;SDS011;67538;52.180;5.646;2024-01-27T11:16:17;23.33;;;7.27;;
22248;SDS011;67538;52.180;5.646;2024-01-27T11:18:45;23.97;;;7.07;;
22248;SDS011;67538;52.180;5.646;2024-01-27T11:21:14;21.33;;;6.33;;
22248;SDS011;67538;52.180;5.646;2024-01-27T11:23:42;27.80;;;6.73;;
22248;SDS011;67538;52.180;5.646;2024-01-27T11:26:16;27.70;;;7.17;;
22248;SDS011;67538;52.180;5.646;2024-01-27T11:28:47;20.47;;;6.80;;
22248;SDS011;67538;52.180;5.646;2024-01-27T11:31:16;22.53;;;6.30;;
22248;SDS011;67538;52.180;5.646;2024-01-27T11:33:46;25.10;;;6.90;;
22248;SDS011;67538;52.180;5.646;2024-01-27T11:36:19;30.90;;;6.80;;
22248;SDS011;67538;52.180;5.646;2024-01-27T11:38:48;18.70;;;6.97;;
22248;SDS011;67538;52.180;5.646;2024-01-27T11:41:25;24.90;;;8.17;;
22248;SDS011;67538;52.180;5.646;2024-01-27T11:43:54;17.47;;;7.30;;
22248;SDS011;67538;52.180;5.646;2024-01-27T11:46:22;35.37;;;7.10;;
22248;SDS011;67538;52.180;5.646;2024-01-27T11:48:49;20.23;;;7.53;;
22248;SDS011;67538;52.180;5.646;2024-01-27T11:51:17;19.67;;;8.03;;
22248;SDS011;67538;52.180;5.646;2024-01-27T11:53:44;25.43;;;7.93;;
22248;SDS011;67538;52.180;5.646;2024-01-27T11:56:13;22.57;;;7.10;;
22248;SDS011;67538;52.180;5.646;2024-01-27T11:58:45;25.90;;;7.37;;
22248;SDS011;67538;52.180;5.646;2024-01-27T12:01:15;19.27;;;6.37;;
22248;SDS011;67538;52.180;5.646;2024-01-27T12:03:42;24.37;;;6.63;;
22248;SDS011;67538;52.180;5.646;2024-01-27T12:06:10;28.73;;;7.27;;
22248;SDS011;67538;52.180;5.646;2024-01-27T12:08:38;22.90;;;6.40;;
22248;SDS011;67538;52.180;5.646;2024-01-27T12:11:05;25.57;;;7.00;;
22248;SDS011;67538;52.180;5.646;2024-01-27T12:13:32;20.57;;;7.47;;
22248;SDS011;67538;52.180;5.646;2024-01-27T12:16:00;20.77;;;6.43;;
22248;SDS011;67538;52.180;5.646;2024-01-27T12:18:29;21.13;;;7.10;;
22248;SDS011;67538;52.180;5.646;2024-01-27T12:20:56;19.63;;;7.20;;
22248;SDS011;67538;52.180;5.646;2024-01-27T12:23:23;22.73;;;7.00;;
22248;SDS011;67538;52.180;5.646;2024-01-27T12:25:54;24.70;;;6.63;;
22248;SDS011;67538;52.180;5.646;2024-01-27T12:28:22;19.37;;;6.30;;
22248;SDS011;67538;52.180;5.646;2024-01-27T12:30:49;21.40;;;6.77;;
22248;SDS011;67538;52.180;5.646;2024-01-27T12:33:18;27.87;;;6.17;;
22248;SDS011;67538;52.180;5.646;2024-01-27T12:35:50;17.93;;;5.40;;
22248;SDS011;67538;52.180;5.646;2024-01-27T12:38:19;20.50;;;6.10;;
22248;SDS011;67538;52.180;5.646;2024-01-27T12:40:46;24.43;;;6.60;;
22248;SDS011;67538;52.180;5.646;2024-01-27T12:43:13;17.87;;;6.93;;
22248;SDS011;67538;52.180;5.646;2024-01-27T12:45:40;17.27;;;6.20;;
22248;SDS011;67538;52.180;5.646;2024-01-27T12:48:07;17.90;;;5.87;;
22248;SDS011;67538;52.180;5.646;2024-01-27T12:50:35;21.70;;;5.70;;
22248;SDS011;67538;52.180;5.646;2024-01-27T12:53:03;22.93;;;5.97;;
22248;SDS011;67538;52.180;5.646;2024-01-27T12:55:30;29.57;;;6.17;;
22248;SDS011;67538;52.180;5.646;2024-01-27T12:57:57;18.10;;;5.40;;
22248;SDS011;67538;52.180;5.646;2024-01-27T13:00:24;23.60;;;6.20;;
22248;SDS011;67538;52.180;5.646;2024-01-27T13:02:51;28.50;;;6.40;;
22248;SDS011;67538;52.180;5.646;2024-01-27T13:05:18;24.23;;;6.07;;
22248;SDS011;67538;52.180;5.646;2024-01-27T13:07:46;23.80;;;7.17;;
22248;SDS011;67538;52.180;5.646;2024-01-27T13:10:15;22.03;;;6.10;;
22248;SDS011;67538;52.180;5.646;2024-01-27T13:12:42;23.23;;;6.50;;
22248;SDS011;67538;52.180;5.646;2024-01-27T13:15:10;22.80;;;6.40;;
22248;SDS011;67538;52.180;5.646;2024-01-27T13:17:37;26.47;;;6.10;;
22248;SDS011;67538;52.180;5.646;2024-01-27T13:20:04;22.43;;;5.80;;
22248;SDS011;67538;52.180;5.646;2024-01-27T13:22:32;21.37;;;5.93;;
22248;SDS011;67538;52.180;5.646;2024-01-27T13:24:59;16.77;;;5.60;;
22248;SDS011;67538;52.180;5.646;2024-01-27T13:27:31;12.87;;;5.23;;
22248;SDS011;67538;52.180;5.646;2024-01-27T13:29:59;20.40;;;5.27;;
22248;SDS011;67538;52.180;5.646;2024-01-27T13:32:26;24.63;;;5.60;;
22248;SDS011;67538;52.180;5.646;2024-01-27T13:34:53;18.30;;;5.43;;
22248;SDS011;67538;52.180;5.646;2024-01-27T13:37:20;24.87;;;5.40;;
22248;SDS011;67538;52.180;5.646;2024-01-27T13:39:48;25.83;;;6.27;;
22248;SDS011;67538;52.180;5.646;2024-01-27T13:42:15;20.83;;;5.80;;
22248;SDS011;67538;52.180;5.646;2024-01-27T13:44:43;22.70;;;6.43;;
22248;SDS011;67538;52.180;5.646;2024-01-27T13:47:11;20.73;;;6.83;;
22248;SDS011;67538;52.180;5.646;2024-01-27T13:49:38;25.73;;;7.03;;
22248;SDS011;67538;52.180;5.646;2024-01-27T13:52:05;26.90;;;6.67;;
22248;SDS011;67538;52.180;5.646;2024-01-27T13:54:32;38.73;;;6.57;;
22248;SDS011;67538;52.180;5.646;2024-01-27T13:57:00;23.60;;;6.53;;
22248;SDS011;67538;52.180;5.646;2024-01-27T13:59:27;24.97;;;6.57;;
22248;SDS011;67538;52.180;5.646;2024-01-27T14:01:56;26.63;;;6.07;;
22248;SDS011;67538;52.180;5.646;2024-01-27T14:04:23;20.90;;;6.50;;
22248;SDS011;67538;52.180;5.646;2024-01-27T14:06:50;21.73;;;6.77;;
22248;SDS011;67538;52.180;5.646;2024-01-27T14:09:18;23.80;;;7.03;;
22248;SDS011;67538;52.180;5.646;2024-01-27T14:11:45;20.63;;;6.47;;
22248;SDS011;67538;52.180;5.646;2024-01-27T14:14:12;25.80;;;6.63;;
22248;SDS011;67538;52.180;5.646;2024-01-27T14:16:39;24.27;;;7.27;;
22248;SDS011;67538;52.180;5.646;2024-01-27T14:19:08;24.93;;;7.60;;
22248;SDS011;67538;52.180;5.646;2024-01-27T14:21:35;23.83;;;7.87;;
22248;SDS011;67538;52.180;5.646;2024-01-27T14:24:04;21.33;;;7.17;;
22248;SDS011;67538;52.180;5.646;2024-01-27T14:26:31;26.77;;;7.00;;
22248;SDS011;67538;52.180;5.646;2024-01-27T14:28:58;23.47;;;5.50;;
22248;SDS011;67538;52.180;5.646;2024-01-27T14:31:26;26.10;;;6.17;;
22248;SDS011;67538;52.180;5.646;2024-01-27T14:33:55;21.17;;;6.37;;